createdAt,value
2019-01-19T00:01:44.734Z,27.33
2019-01-19T00:04:43.237Z,24.57
2019-01-19T00:07:26.807Z,23.73
2019-01-19T00:10:24.312Z,22.73
2019-01-19T00:13:22.825Z,23.57
2019-01-19T00:16:09.442Z,25.00
2019-01-19T00:18:58.876Z,24.47
2019-01-19T00:21:39.242Z,24.30
2019-01-19T00:24:31.983Z,24.57
2019-01-19T00:27:15.685Z,24.37
2019-01-19T00:29:56.034Z,25.20
2019-01-19T00:32:39.774Z,25.57
2019-01-19T00:35:17.727Z,27.50
2019-01-19T00:37:45.000Z,26.77
2019-01-19T00:40:45.073Z,26.10
2019-01-19T00:43:14.458Z,25.50
2019-01-19T00:45:48.988Z,25.13
2019-01-19T00:48:20.809Z,26.50
2019-01-19T00:50:55.213Z,25.20
2019-01-19T00:53:27.033Z,27.00
2019-01-19T00:56:21.207Z,27.17
2019-01-19T00:58:58.558Z,26.43
2019-01-19T01:01:39.111Z,26.60
2019-01-19T01:04:22.757Z,27.67
2019-01-19T01:07:08.997Z,26.00
2019-01-19T01:09:43.606Z,33.13
2019-01-19T01:12:21.876Z,28.80
2019-01-19T01:15:09.905Z,35.07
2019-01-19T01:17:40.361Z,29.93
2019-01-19T01:20:35.981Z,28.03
2019-01-19T01:23:07.794Z,27.43
2019-01-19T01:25:54.106Z,29.13
2019-01-19T01:28:34.396Z,27.80
2019-01-19T01:31:18.181Z,30.20
2019-01-19T01:34:19.788Z,31.47
2019-01-19T01:37:09.533Z,31.67
2019-01-19T01:39:47.349Z,29.20
2019-01-19T01:42:19.187Z,29.77
2019-01-19T01:44:59.572Z,27.40
2019-01-19T01:47:31.390Z,28.90
2019-01-19T01:50:08.822Z,27.30
2019-01-19T01:52:43.266Z,36.03
2019-01-19T01:55:17.777Z,30.70
2019-01-19T01:57:49.922Z,28.67
2019-01-19T02:00:24.729Z,30.07
2019-01-19T02:03:17.428Z,29.13
2019-01-19T02:05:49.194Z,27.93
2019-01-19T02:08:32.675Z,30.60
2019-01-19T02:11:16.351Z,30.57
2019-01-19T02:14:03.154Z,29.47
2019-01-19T02:16:40.472Z,26.33
2019-01-19T02:19:43.746Z,26.53
2019-01-19T02:22:16.735Z,26.10
2019-01-19T02:24:59.977Z,26.13
2019-01-19T02:27:52.300Z,26.70
2019-01-19T02:30:40.107Z,28.23
2019-01-19T02:33:32.392Z,26.77
2019-01-19T02:36:04.211Z,30.53
2019-01-19T02:39:02.887Z,32.20
2019-01-19T02:41:51.051Z,29.53
2019-01-19T02:44:35.869Z,31.27
2019-01-19T02:47:36.130Z,30.27
2019-01-19T02:50:22.699Z,26.13
2019-01-19T02:52:54.542Z,26.47
2019-01-19T02:55:38.759Z,27.13
2019-01-19T02:58:13.581Z,28.40
2019-01-19T03:04:05.687Z,25.50
2019-01-19T03:06:54.485Z,28.23
2019-01-19T03:09:29.181Z,27.03
2019-01-19T03:12:00.980Z,30.07
2019-01-19T03:14:50.743Z,28.27
2019-01-19T03:17:34.165Z,29.10
2019-01-19T03:20:22.460Z,31.30
2019-01-19T03:22:56.874Z,31.10
2019-01-19T03:25:44.918Z,27.17
2019-01-19T03:28:21.004Z,29.40
2019-01-19T03:31:07.748Z,29.00
2019-01-19T03:33:48.070Z,28.43
2019-01-19T03:36:52.814Z,30.00
2019-01-19T03:39:48.276Z,31.80
2019-01-19T03:42:29.048Z,32.27
2019-01-19T03:45:12.774Z,29.40
2019-01-19T03:47:53.324Z,30.23
2019-01-19T03:50:36.909Z,28.07
2019-01-19T03:53:23.968Z,26.27
2019-01-19T03:56:07.611Z,26.57
2019-01-19T03:58:45.020Z,25.83
2019-01-19T04:01:22.410Z,24.10
2019-01-19T04:03:57.058Z,24.47
2019-01-19T04:06:37.394Z,25.30
2019-01-19T04:09:34.535Z,25.80
2019-01-19T04:12:11.729Z,24.07
2019-01-19T04:15:05.742Z,24.77
2019-01-19T04:17:46.359Z,26.03
2019-01-19T04:20:38.821Z,28.43
2019-01-19T04:23:07.707Z,30.43
2019-01-19T04:25:42.736Z,28.27
2019-01-19T04:28:12.190Z,29.73
2019-01-19T04:30:40.866Z,31.60
2019-01-19T04:33:09.613Z,30.67
2019-01-19T04:35:38.320Z,37.00
2019-01-19T04:38:06.973Z,33.23
2019-01-19T04:40:35.794Z,33.27
2019-01-19T04:43:04.439Z,45.60
2019-01-19T04:45:33.094Z,45.13
2019-01-19T04:48:01.850Z,44.83
2019-01-19T04:50:30.463Z,45.80
2019-01-19T04:52:59.150Z,46.67
2019-01-19T04:55:27.974Z,48.27
2019-01-19T04:57:56.605Z,48.67
2019-01-19T05:00:25.251Z,50.20
2019-01-19T05:02:54.029Z,60.03
2019-01-19T05:05:22.704Z,69.20
2019-01-19T05:07:51.342Z,76.23
2019-01-19T05:10:20.046Z,73.90
2019-01-19T05:12:48.729Z,69.73
2019-01-19T05:15:18.659Z,71.63
2019-01-19T05:17:47.825Z,73.70
2019-01-19T05:20:16.508Z,82.60
2019-01-19T05:22:45.144Z,79.63
2019-01-19T05:25:14.185Z,68.12
2019-01-19T05:27:42.856Z,63.53
2019-01-19T05:30:16.818Z,61.83
2019-01-19T05:32:45.556Z,58.13
2019-01-19T05:35:17.710Z,55.17
2019-01-19T05:37:46.561Z,59.43
2019-01-19T05:40:15.243Z,53.73
2019-01-19T05:42:43.886Z,53.93
2019-01-19T05:45:14.056Z,49.50
2019-01-19T05:47:42.771Z,49.07
2019-01-19T05:50:16.926Z,41.83
2019-01-19T05:52:45.598Z,44.00
2019-01-19T05:55:14.330Z,45.30
2019-01-19T05:57:43.026Z,42.03
2019-01-19T06:00:14.636Z,41.87
2019-01-19T06:02:43.324Z,39.43
2019-01-19T06:05:11.949Z,40.67
2019-01-19T06:07:41.782Z,41.13
2019-01-19T06:10:13.206Z,39.33
2019-01-19T06:12:41.936Z,40.13
2019-01-19T06:15:13.450Z,40.00
2019-01-19T06:17:42.223Z,42.50
2019-01-19T06:20:13.240Z,40.90
2019-01-19T06:22:41.978Z,43.67
2019-01-19T06:25:16.522Z,41.73
2019-01-19T06:27:45.233Z,41.83
2019-01-19T06:30:21.555Z,40.87
2019-01-19T06:32:50.251Z,40.90
2019-01-19T06:35:18.910Z,42.47
2019-01-19T06:37:47.565Z,44.17
2019-01-19T06:40:17.809Z,47.23
2019-01-19T06:42:46.488Z,48.40
2019-01-19T06:45:22.790Z,46.60
2019-01-19T06:47:51.455Z,47.67
2019-01-19T06:50:20.087Z,45.87
2019-01-19T06:52:48.813Z,45.43
2019-01-19T06:55:24.983Z,43.00
2019-01-19T06:57:55.964Z,43.90
2019-01-19T07:00:24.647Z,41.97
2019-01-19T07:02:53.349Z,41.47
2019-01-19T07:05:22.045Z,41.70
2019-01-19T07:07:50.732Z,40.20
2019-01-19T07:10:21.928Z,38.97
2019-01-19T07:12:50.676Z,39.07
2019-01-19T07:15:20.934Z,37.07
2019-01-19T07:17:50.855Z,37.48
2019-01-19T07:20:28.238Z,36.33
2019-01-19T07:22:56.865Z,33.60
2019-01-19T07:26:33.774Z,34.53
2019-01-19T07:30:20.350Z,32.90
2019-01-19T07:31:17.510Z,32.90
2019-01-19T07:33:47.358Z,32.43
2019-01-19T07:36:16.624Z,31.00
2019-01-19T07:38:45.393Z,29.60
2019-01-19T07:41:14.046Z,29.90
2019-01-19T07:43:42.760Z,30.50
2019-01-19T07:46:13.310Z,28.77
2019-01-19T07:48:42.011Z,29.83
2019-01-19T07:51:12.379Z,27.27
2019-01-19T07:53:42.339Z,28.53
2019-01-19T07:56:11.205Z,28.00
2019-01-19T07:58:42.870Z,29.43
2019-01-19T08:01:11.666Z,28.07
2019-01-19T08:03:40.444Z,27.70
2019-01-19T08:06:09.131Z,27.63
2019-01-19T08:08:38.190Z,25.03
2019-01-19T08:11:06.893Z,26.40
2019-01-19T08:13:35.602Z,22.87
2019-01-19T08:16:04.377Z,24.43
2019-01-19T08:18:35.857Z,25.50
2019-01-19T08:21:04.527Z,31.77
2019-01-19T08:23:51.184Z,25.20
2019-01-19T08:26:35.135Z,23.73
2019-01-19T08:29:03.961Z,23.60
2019-01-19T08:31:32.628Z,25.00
2019-01-19T08:34:02.784Z,23.57
2019-01-19T08:36:31.496Z,26.90
2019-01-19T08:39:01.732Z,23.37
2019-01-19T08:41:30.474Z,24.27
2019-01-19T08:44:06.649Z,23.80
2019-01-19T08:46:35.454Z,23.70
2019-01-19T08:49:04.299Z,23.17
2019-01-19T08:51:33.008Z,24.10
2019-01-19T08:54:03.278Z,22.00
2019-01-19T08:56:33.856Z,21.23
2019-01-19T08:59:05.325Z,19.30
2019-01-19T09:01:38.635Z,17.97
2019-01-19T09:04:07.380Z,16.77
2019-01-19T09:06:37.046Z,16.27
2019-01-19T09:09:09.997Z,15.43
2019-01-19T09:11:40.779Z,13.63
2019-01-19T09:14:13.549Z,14.40
2019-01-19T09:16:42.218Z,16.55
2019-01-19T09:19:10.969Z,12.53
2019-01-19T09:21:39.709Z,11.47
2019-01-19T09:24:08.916Z,10.70
2019-01-19T09:26:37.548Z,11.43
2019-01-19T09:29:08.016Z,10.33
2019-01-19T09:31:36.702Z,10.53
2019-01-19T09:34:06.924Z,10.20
2019-01-19T09:36:37.416Z,9.50
2019-01-19T09:39:12.128Z,9.40
2019-01-19T09:41:41.007Z,9.00
2019-01-19T09:44:09.687Z,11.50
2019-01-19T09:55:13.657Z,8.73
2019-01-19T09:57:42.297Z,8.67
2019-01-19T10:00:19.595Z,8.77
2019-01-19T10:02:48.319Z,8.57
2019-01-19T10:05:19.473Z,7.40
2019-01-19T10:07:48.749Z,7.97
2019-01-19T10:10:17.578Z,7.90
2019-01-19T10:12:46.250Z,7.40
2019-01-19T10:15:16.724Z,7.27
2019-01-19T10:17:45.408Z,7.93
2019-01-19T10:20:28.477Z,8.03
2019-01-19T10:22:57.356Z,7.90
2019-01-19T10:25:26.387Z,8.27
2019-01-19T10:27:55.226Z,10.70
2019-01-19T10:30:28.685Z,8.83
2019-01-19T10:32:57.385Z,8.80
2019-01-19T10:35:26.153Z,6.67
2019-01-19T10:37:56.599Z,7.83
2019-01-19T10:40:25.051Z,5.80
2019-01-19T10:42:53.784Z,5.80
2019-01-19T10:45:27.100Z,5.60
2019-01-19T10:47:55.805Z,5.87
2019-01-19T10:50:24.441Z,6.13
2019-01-19T10:52:53.115Z,5.67
2019-01-19T10:58:12.909Z,6.03
2019-01-19T11:03:30.635Z,4.93
2019-01-19T11:05:59.324Z,6.10
2019-01-19T11:08:33.089Z,6.13
2019-01-19T11:11:01.788Z,6.20
2019-01-19T11:13:30.487Z,6.30
2019-01-19T11:16:03.096Z,5.60
2019-01-19T11:18:31.900Z,5.33
2019-01-19T11:21:00.592Z,5.70
2019-01-19T11:23:29.234Z,5.90
2019-01-19T11:25:57.973Z,5.50
2019-01-19T11:28:26.845Z,5.30
2019-01-19T11:30:56.029Z,5.17
2019-01-19T11:33:25.458Z,4.77
2019-01-19T11:35:55.046Z,5.20
2019-01-19T11:38:23.733Z,5.53
2019-01-19T11:40:53.646Z,6.33
2019-01-19T11:43:23.929Z,3.90
2019-01-19T11:45:53.066Z,3.70
2019-01-19T11:48:21.737Z,3.80
2019-01-19T11:50:51.966Z,4.30
2019-01-19T11:53:20.642Z,3.10
2019-01-19T11:55:49.356Z,3.93
2019-01-19T11:58:18.021Z,5.00
2019-01-19T12:00:46.667Z,3.93
2019-01-19T12:03:18.337Z,4.03
2019-01-19T12:05:46.991Z,4.40
2019-01-19T12:08:19.812Z,4.70
2019-01-19T12:10:46.132Z,3.87
2019-01-19T12:13:14.852Z,5.30
2019-01-19T12:15:43.526Z,4.03
2019-01-19T12:18:12.335Z,4.00
2019-01-19T12:20:42.812Z,3.63
2019-01-19T12:23:11.479Z,3.60
2019-01-19T12:25:47.365Z,3.70
2019-01-19T12:28:16.036Z,4.35
2019-01-19T12:30:44.769Z,4.40
2019-01-19T12:33:14.856Z,3.87
2019-01-19T12:35:43.558Z,3.87
2019-01-19T12:38:12.278Z,3.43
2019-01-19T12:40:41.020Z,3.50
2019-01-19T12:43:20.305Z,3.50
2019-01-19T12:45:51.424Z,3.17
2019-01-19T12:48:20.110Z,3.90
2019-01-19T12:50:48.800Z,4.43
2019-01-19T12:53:17.618Z,4.53
2019-01-19T12:55:46.292Z,5.13
2019-01-19T12:58:15.042Z,4.93
2019-01-19T13:00:43.716Z,3.77
2019-01-19T13:03:12.368Z,3.93
2019-01-19T13:05:52.846Z,4.65
2019-01-19T13:08:34.166Z,3.30
2019-01-19T13:11:19.996Z,3.40
2019-01-19T13:13:48.766Z,3.60
2019-01-19T13:16:26.665Z,3.50
2019-01-19T13:19:07.189Z,3.87
2019-01-19T13:21:58.501Z,3.77
2019-01-19T13:24:48.187Z,4.10
2019-01-19T13:27:28.890Z,3.43
2019-01-19T13:30:25.948Z,3.73
2019-01-19T13:33:10.053Z,3.80
2019-01-19T13:35:53.409Z,3.93
2019-01-19T13:38:34.270Z,4.03
2019-01-19T13:41:40.560Z,3.93
2019-01-19T13:44:27.117Z,3.73
2019-01-19T13:47:16.549Z,3.97
2019-01-19T13:50:07.573Z,3.10
2019-01-19T13:52:55.473Z,3.50
2019-01-19T13:55:36.651Z,3.43
2019-01-19T13:58:20.565Z,3.23
2019-01-19T14:01:11.673Z,3.80
2019-01-19T14:03:48.905Z,4.23
2019-01-19T14:06:29.555Z,4.30
2019-01-19T14:09:20.769Z,4.40
2019-01-19T14:12:01.415Z,3.40
2019-01-19T14:14:44.826Z,4.23
2019-01-19T14:17:19.610Z,4.10
2019-01-19T14:20:03.126Z,4.60
2019-01-19T14:22:35.702Z,9.40
2019-01-19T14:25:16.158Z,6.73
2019-01-19T14:27:56.691Z,4.83
2019-01-19T14:30:40.360Z,4.47
2019-01-19T14:33:14.768Z,3.67
2019-01-19T14:35:52.334Z,3.70
2019-01-19T14:38:39.353Z,5.30
2019-01-19T14:41:32.005Z,3.93
2019-01-19T14:44:03.842Z,4.30
2019-01-19T14:46:44.021Z,4.20
2019-01-19T14:49:30.499Z,3.80
2019-01-19T14:52:26.172Z,4.80
2019-01-19T14:54:57.991Z,4.80
2019-01-19T14:57:32.254Z,4.93
2019-01-19T15:00:18.960Z,4.57
2019-01-19T15:03:06.925Z,4.40
2019-01-19T15:05:41.338Z,5.00
2019-01-19T15:08:15.990Z,4.67
2019-01-19T15:10:53.516Z,4.43
2019-01-19T15:13:30.819Z,4.47
2019-01-19T15:16:17.817Z,4.60
2019-01-19T15:19:10.653Z,4.70
2019-01-19T15:21:44.985Z,4.73
2019-01-19T15:24:28.399Z,6.67
2019-01-19T15:27:25.744Z,10.90
2019-01-19T15:30:03.247Z,7.60
2019-01-19T15:32:55.852Z,5.90
2019-01-19T15:35:39.165Z,6.03
2019-01-19T15:38:27.444Z,6.27
2019-01-19T15:41:24.719Z,6.10
2019-01-19T15:44:02.222Z,5.73
2019-01-19T15:46:54.831Z,7.07
2019-01-19T15:49:42.967Z,6.70
2019-01-19T15:52:26.615Z,7.43
2019-01-19T15:54:58.440Z,6.00
2019-01-19T15:57:35.823Z,5.77
2019-01-19T16:00:22.706Z,5.20
2019-01-19T16:03:00.558Z,4.87
2019-01-19T16:05:41.274Z,5.17
2019-01-19T16:08:33.844Z,4.60
2019-01-19T16:11:08.771Z,5.50
2019-01-19T16:13:43.432Z,6.93
2019-01-19T16:16:17.909Z,7.70
2019-01-19T16:18:52.664Z,8.00
2019-01-19T16:21:36.195Z,9.70
2019-01-19T16:24:16.787Z,10.03
2019-01-19T16:27:12.266Z,11.13
2019-01-19T16:30:03.164Z,11.93
2019-01-19T16:32:49.934Z,12.97
2019-01-19T16:35:27.233Z,13.83
2019-01-19T16:38:21.489Z,13.33
2019-01-19T16:41:13.675Z,11.67
2019-01-19T16:43:51.298Z,14.97
2019-01-19T16:46:28.848Z,11.40
2019-01-19T16:49:13.022Z,9.70
2019-01-19T16:51:47.573Z,9.37
2019-01-19T16:54:22.632Z,10.17
2019-01-19T16:57:21.260Z,10.33
2019-01-19T16:59:56.851Z,13.72
2019-01-19T17:02:37.219Z,11.43
2019-01-19T17:05:17.841Z,11.10
2019-01-19T17:08:06.171Z,11.47
2019-01-19T17:10:52.728Z,9.83
2019-01-19T17:13:45.514Z,11.23
2019-01-19T17:16:29.174Z,9.70
2019-01-19T17:19:06.884Z,9.97
2019-01-19T17:22:45.558Z,10.77
2019-01-19T17:25:00.654Z,12.20
2019-01-19T17:28:00.118Z,11.40
2019-01-19T17:30:40.841Z,11.40
2019-01-19T17:33:27.561Z,10.87
2019-01-19T17:36:11.819Z,12.33
2019-01-19T17:39:11.294Z,12.83
2019-01-19T17:41:58.651Z,12.17
2019-01-19T17:44:40.330Z,11.80
2019-01-19T17:47:20.888Z,16.30
2019-01-19T17:50:07.322Z,13.07
2019-01-19T17:52:47.639Z,11.17
2019-01-19T17:55:43.244Z,11.87
2019-01-19T17:58:20.558Z,11.00
2019-01-19T18:00:58.085Z,9.97
2019-01-19T18:03:57.115Z,10.37
2019-01-19T18:06:28.929Z,10.13
2019-01-19T18:09:00.757Z,10.93
2019-01-19T18:11:38.329Z,12.03
2019-01-19T18:14:18.141Z,14.20
2019-01-19T18:16:50.038Z,15.90
2019-01-19T18:19:36.583Z,16.83
2019-01-19T18:22:26.196Z,16.73
2019-01-19T18:25:00.693Z,16.23
2019-01-19T18:27:48.987Z,17.93
2019-01-19T18:30:37.664Z,16.53
2019-01-19T18:33:34.867Z,14.07
2019-01-19T18:36:21.746Z,12.57
2019-01-19T18:39:06.801Z,14.10
2019-01-19T18:41:56.601Z,11.57
2019-01-19T18:44:45.115Z,9.77
2019-01-19T18:47:21.149Z,13.03
2019-01-19T18:50:07.928Z,21.50
2019-01-19T18:52:51.425Z,13.33
2019-01-19T18:55:37.843Z,13.57
2019-01-19T18:58:32.179Z,10.27
2019-01-19T19:01:23.348Z,9.77
2019-01-19T19:04:02.397Z,10.83
2019-01-19T19:06:50.806Z,11.30
2019-01-19T19:09:25.435Z,13.23
2019-01-19T19:12:12.384Z,9.83
2019-01-19T19:14:59.216Z,10.73
2019-01-19T19:17:50.816Z,10.67
2019-01-19T19:20:39.402Z,12.73
2019-01-19T19:23:13.496Z,16.47
2019-01-19T19:25:47.815Z,14.40
2019-01-19T19:28:39.519Z,14.40
2019-01-19T19:31:11.492Z,14.40
2019-01-19T19:34:02.199Z,14.07
2019-01-19T19:36:51.824Z,14.97
2019-01-19T19:39:40.403Z,13.50
2019-01-19T19:42:22.356Z,13.53
2019-01-19T19:45:10.699Z,16.15
2019-01-19T19:48:03.211Z,15.47
2019-01-19T19:50:35.033Z,15.20
2019-01-19T19:53:03.703Z,15.23
2019-01-19T19:55:31.389Z,15.80
2019-01-19T19:58:00.145Z,15.97
2019-01-19T20:00:29.059Z,15.40
2019-01-19T20:02:57.816Z,16.77
2019-01-19T20:05:26.617Z,17.43
2019-01-19T20:07:57.870Z,17.67
2019-01-19T20:10:26.568Z,17.70
2019-01-19T20:12:55.347Z,20.13
2019-01-19T20:15:24.033Z,22.27
2019-01-19T20:17:54.236Z,20.50
2019-01-19T20:20:22.970Z,23.73
2019-01-19T20:22:51.740Z,20.63
2019-01-19T20:25:30.617Z,23.63
2019-01-19T20:27:51.437Z,28.40
2019-01-19T20:30:20.068Z,26.67
2019-01-19T20:32:48.752Z,26.03
2019-01-19T20:35:18.445Z,25.33
2019-01-19T20:37:47.234Z,27.77
2019-01-19T20:40:24.075Z,23.17
2019-01-19T20:42:46.276Z,21.37
2019-01-19T20:45:15.193Z,25.60
2019-01-19T20:47:44.010Z,25.27
2019-01-19T20:50:15.929Z,28.83
2019-01-19T20:52:44.672Z,27.40
2019-01-19T20:55:13.421Z,28.60
2019-01-19T20:57:42.127Z,28.27
2019-01-19T21:00:15.302Z,27.07
2019-01-19T21:02:44.991Z,25.57
2019-01-19T21:05:13.749Z,25.80
2019-01-19T21:07:42.534Z,26.60
2019-01-19T21:10:11.215Z,27.30
2019-01-19T21:12:39.954Z,28.13
2019-01-19T21:15:11.899Z,29.47
2019-01-19T21:17:40.630Z,29.93
2019-01-19T21:20:12.683Z,31.63
2019-01-19T21:22:41.295Z,32.60
2019-01-19T21:25:11.479Z,33.43
2019-01-19T21:27:40.145Z,30.77
2019-01-19T21:30:11.621Z,37.17
2019-01-19T21:32:46.462Z,33.07
2019-01-19T21:35:15.173Z,45.53
2019-01-19T21:37:43.864Z,49.93
2019-01-19T21:40:14.003Z,55.47
2019-01-19T21:42:42.663Z,46.83
2019-01-19T21:45:17.159Z,47.93
2019-01-19T21:47:45.840Z,46.20
2019-01-19T21:50:15.565Z,42.93
2019-01-19T21:52:48.705Z,45.83
2019-01-19T21:55:17.396Z,45.50
2019-01-19T21:57:46.189Z,49.43
2019-01-19T22:00:22.401Z,45.27
2019-01-19T22:02:51.079Z,44.47
2019-01-19T22:05:21.389Z,45.80
2019-01-19T22:07:50.219Z,46.30
2019-01-19T22:10:20.561Z,46.80
2019-01-19T22:12:49.206Z,48.17
2019-01-19T22:15:18.812Z,45.20
2019-01-19T22:17:47.501Z,47.20
2019-01-19T22:20:19.661Z,48.80
2019-01-19T22:22:51.475Z,50.40
2019-01-19T22:25:20.173Z,49.37
2019-01-19T22:27:52.054Z,48.53
2019-01-19T22:30:23.169Z,48.43
2019-01-19T22:32:53.458Z,59.10
2019-01-19T22:35:26.906Z,55.13
2019-01-19T22:37:55.565Z,53.03
2019-01-19T22:40:24.386Z,49.47
2019-01-19T22:42:54.198Z,51.20
2019-01-19T22:45:22.878Z,54.10
2019-01-19T22:47:52.776Z,44.83
2019-01-19T22:50:21.530Z,43.67
2019-01-19T22:52:50.325Z,35.83
2019-01-19T22:55:19.000Z,39.20
2019-01-19T22:57:47.717Z,32.73
2019-01-19T23:00:45.126Z,34.20
2019-01-19T23:03:13.954Z,32.83
2019-01-19T23:05:42.620Z,31.47
2019-01-19T23:08:11.327Z,30.77
2019-01-19T23:10:40.022Z,35.10
2019-01-19T23:13:08.734Z,31.63
2019-01-19T23:15:37.386Z,34.00
2019-01-19T23:18:06.086Z,34.47
2019-01-19T23:20:34.772Z,34.20
2019-01-19T23:23:03.528Z,39.53
2019-01-19T23:25:32.302Z,32.80
2019-01-19T23:28:01.061Z,36.63
2019-01-19T23:30:29.742Z,34.57
2019-01-19T23:32:58.449Z,34.43
2019-01-19T23:35:27.718Z,34.30
2019-01-19T23:37:56.387Z,34.07
2019-01-19T23:40:25.144Z,31.73
2019-01-19T23:42:53.811Z,32.53
2019-01-19T23:45:22.494Z,33.63
2019-01-19T23:47:51.334Z,34.00
2019-01-19T23:50:19.983Z,30.87
2019-01-19T23:52:48.703Z,34.20
2019-01-19T23:55:17.461Z,36.23
2019-01-19T23:57:46.118Z,37.10
